sensor_id;sensor_type;location;lat;lon;timestamp;pressure;altitude;pressure_sealevel;temperature;humidity
24013;BME280;12220;50.194;18.948;2023-07-24T00:01:42;101228.37;;;24.25;45.78
24013;BME280;12220;50.194;18.948;2023-07-24T00:03:44;101046.27;;;23.10;45.94
24013;BME280;12220;50.194;18.948;2023-07-24T00:05:45;101229.42;;;24.24;45.83
24013;BME280;12220;50.194;18.948;2023-07-24T00:07:55;101232.02;;;24.25;45.88
24013;BME280;12220;50.194;18.948;2023-07-24T00:09:57;101233.07;;;24.24;45.99
24013;BME280;12220;50.194;18.948;2023-07-24T00:11:58;101230.45;;;24.23;46.07
24013;BME280;12220;50.194;18.948;2023-07-24T00:13:59;101228.52;;;24.23;46.08
24013;BME280;12220;50.194;18.948;2023-07-24T00:16:10;101053.22;;;23.14;46.15
24013;BME280;12220;50.194;18.948;2023-07-24T00:18:11;101229.98;;;24.19;45.97
24013;BME280;12220;50.194;18.948;2023-07-24T00:20:13;101240.27;;;24.18;46.36
24013;BME280;12220;50.194;18.948;2023-07-24T00:22:14;101239.41;;;24.18;46.53
24013;BME280;12220;50.194;18.948;2023-07-24T00:24:25;101239.61;;;24.16;46.74
24013;BME280;12220;50.194;18.948;2023-07-24T00:26:26;101284.20;;;24.18;46.61
24013;BME280;12220;50.194;18.948;2023-07-24T00:28:27;101267.40;;;24.18;46.66
24013;BME280;12220;50.194;18.948;2023-07-24T00:30:29;101271.95;;;24.19;46.68
24013;BME280;12220;50.194;18.948;2023-07-24T00:32:40;101280.34;;;24.19;46.72
24013;BME280;12220;50.194;18.948;2023-07-24T00:34:41;101280.72;;;24.16;47.10
24013;BME280;12220;50.194;18.948;2023-07-24T00:36:42;101273.55;;;24.13;47.02
24013;BME280;12220;50.194;18.948;2023-07-24T00:38:43;101275.83;;;24.10;47.12
24013;BME280;12220;50.194;18.948;2023-07-24T00:40:54;101274.45;;;24.06;47.23
24013;BME280;12220;50.194;18.948;2023-07-24T00:42:59;101269.93;;;24.05;47.34
24013;BME280;12220;50.194;18.948;2023-07-24T00:45:00;101256.31;;;24.01;47.67
24013;BME280;12220;50.194;18.948;2023-07-24T00:47:01;101251.09;;;23.98;47.77
24013;BME280;12220;50.194;18.948;2023-07-24T00:49:09;101245.84;;;23.95;47.80
24013;BME280;12220;50.194;18.948;2023-07-24T00:51:11;101255.31;;;23.94;47.88
24013;BME280;12220;50.194;18.948;2023-07-24T00:53:13;101262.80;;;23.94;47.98
24013;BME280;12220;50.194;18.948;2023-07-24T00:55:15;101251.62;;;23.94;47.94
24013;BME280;12220;50.194;18.948;2023-07-24T00:57:24;101255.68;;;23.91;48.23
24013;BME280;12220;50.194;18.948;2023-07-24T00:59:26;101250.42;;;23.88;48.29
24013;BME280;12220;50.194;18.948;2023-07-24T01:01:28;101242.22;;;23.87;48.45
24013;BME280;12220;50.194;18.948;2023-07-24T01:03:34;101248.86;;;23.85;48.48
24013;BME280;12220;50.194;18.948;2023-07-24T01:05:39;101249.75;;;23.86;48.53
24013;BME280;12220;50.194;18.948;2023-07-24T01:07:42;101238.71;;;23.84;48.61
24013;BME280;12220;50.194;18.948;2023-07-24T01:09:43;101242.22;;;23.87;48.71
24013;BME280;12220;50.194;18.948;2023-07-24T01:11:57;101239.41;;;23.87;48.74
24013;BME280;12220;50.194;18.948;2023-07-24T01:16:19;101247.29;;;23.91;48.81
24013;BME280;12220;50.194;18.948;2023-07-24T01:18:24;101242.74;;;23.90;48.92
24013;BME280;12220;50.194;18.948;2023-07-24T01:20:28;101242.74;;;23.90;48.95
24013;BME280;12220;50.194;18.948;2023-07-24T01:22:46;101242.74;;;23.90;49.06
24013;BME280;12220;50.194;18.948;2023-07-24T01:24:50;101250.27;;;23.90;49.13
24013;BME280;12220;50.194;18.948;2023-07-24T01:26:54;101246.58;;;23.89;49.18
24013;BME280;12220;50.194;18.948;2023-07-24T01:28:55;101243.12;;;23.87;49.30
24013;BME280;12220;50.194;18.948;2023-07-24T01:30:58;101248.70;;;23.87;49.38
24013;BME280;12220;50.194;18.948;2023-07-24T01:32:59;101247.62;;;23.88;49.48
24013;BME280;12220;50.194;18.948;2023-07-24T01:35:07;101242.03;;;23.88;49.49
24013;BME280;12220;50.194;18.948;2023-07-24T01:37:09;101240.13;;;23.89;49.53
24013;BME280;12220;50.194;18.948;2023-07-24T01:39:13;101231.73;;;23.89;49.61
24013;BME280;12220;50.194;18.948;2023-07-24T01:41:15;101241.88;;;23.90;49.65
24013;BME280;12220;50.194;18.948;2023-07-24T01:43:22;101241.88;;;23.90;49.70
24013;BME280;12220;50.194;18.948;2023-07-24T01:45:23;101241.17;;;23.88;49.82
24013;BME280;12220;50.194;18.948;2023-07-24T01:47:25;101233.83;;;23.87;49.98
24013;BME280;12220;50.194;18.948;2023-07-24T01:49:26;101232.07;;;23.85;50.04
24013;BME280;12220;50.194;18.948;2023-07-24T01:51:36;101228.38;;;23.85;50.21
24013;BME280;12220;50.194;18.948;2023-07-24T01:53:37;101230.88;;;23.80;50.27
24013;BME280;12220;50.194;18.948;2023-07-24T01:55:39;101220.06;;;23.77;50.37
24013;BME280;12220;50.194;18.948;2023-07-24T01:57:40;101226.70;;;23.76;50.46
24013;BME280;12220;50.194;18.948;2023-07-24T01:59:51;101223.91;;;23.76;50.57
24013;BME280;12220;50.194;18.948;2023-07-24T02:01:52;101228.64;;;23.75;50.67
24013;BME280;12220;50.194;18.948;2023-07-24T02:03:53;101215.70;;;23.74;50.73
24013;BME280;12220;50.194;18.948;2023-07-24T02:05:55;101215.51;;;23.76;50.81
24013;BME280;12220;50.194;18.948;2023-07-24T02:08:06;101231.62;;;23.74;50.83
24013;BME280;12220;50.194;18.948;2023-07-24T02:10:08;101210.29;;;23.73;50.96
24013;BME280;12220;50.194;18.948;2023-07-24T02:12:09;101204.89;;;23.71;51.18
24013;BME280;12220;50.194;18.948;2023-07-24T02:14:13;101202.27;;;23.70;51.36
24013;BME280;12220;50.194;18.948;2023-07-24T02:16:20;101205.26;;;23.68;51.48
24013;BME280;12220;50.194;18.948;2023-07-24T02:18:22;101197.39;;;23.63;51.85
24013;BME280;12220;50.194;18.948;2023-07-24T02:20:23;101197.76;;;23.60;51.96
24013;BME280;12220;50.194;18.948;2023-07-24T02:22:25;101201.63;;;23.59;52.09
24013;BME280;12220;50.194;18.948;2023-07-24T02:24:35;101006.90;;;22.41;52.16
24013;BME280;12220;50.194;18.948;2023-07-24T02:26:37;101199.36;;;23.55;52.34
24013;BME280;12220;50.194;18.948;2023-07-24T02:28:38;101190.98;;;23.55;52.49
24013;BME280;12220;50.194;18.948;2023-07-24T02:30:40;101191.34;;;23.52;52.70
24013;BME280;12220;50.194;18.948;2023-07-24T02:32:50;101191.52;;;23.50;52.79
24013;BME280;12220;50.194;18.948;2023-07-24T02:34:52;101189.10;;;23.47;53.10
24013;BME280;12220;50.194;18.948;2023-07-24T02:36:56;101186.48;;;23.45;53.33
24013;BME280;12220;50.194;18.948;2023-07-24T02:38:58;101240.63;;;23.44;53.45
24013;BME280;12220;50.194;18.948;2023-07-24T02:41:05;101195.72;;;23.46;53.54
24013;BME280;12220;50.194;18.948;2023-07-24T02:43:06;101191.22;;;23.45;53.71
24013;BME280;12220;50.194;18.948;2023-07-24T02:45:08;101192.07;;;23.45;53.80
24013;BME280;12220;50.194;18.948;2023-07-24T02:47:11;101191.03;;;23.46;53.90
24013;BME280;12220;50.194;18.948;2023-07-24T02:49:20;101187.20;;;23.47;53.93
24013;BME280;12220;50.194;18.948;2023-07-24T02:51:21;101191.22;;;23.45;54.37
24013;BME280;12220;50.194;18.948;2023-07-24T02:53:23;101193.13;;;23.44;54.40
24013;BME280;12220;50.194;18.948;2023-07-24T02:55:24;101190.50;;;23.43;54.50
24013;BME280;12220;50.194;18.948;2023-07-24T02:57:34;101192.62;;;23.41;54.57
24013;BME280;12220;50.194;18.948;2023-07-24T02:59:37;101200.34;;;23.39;54.67
24013;BME280;12220;50.194;18.948;2023-07-24T03:01:38;101194.22;;;23.35;55.31
24013;BME280;12220;50.194;18.948;2023-07-24T03:03:41;101198.23;;;23.32;55.23
24013;BME280;12220;50.194;18.948;2023-07-24T03:05:49;101191.98;;;23.30;55.30
24013;BME280;12220;50.194;18.948;2023-07-24T03:07:51;101194.95;;;23.29;55.63
24013;BME280;12220;50.194;18.948;2023-07-24T03:09:52;101180.26;;;23.27;55.61
24013;BME280;12220;50.194;18.948;2023-07-24T03:11:53;101186.04;;;23.25;55.91
24013;BME280;12220;50.194;18.948;2023-07-24T03:14:04;101191.63;;;23.25;55.90
24013;BME280;12220;50.194;18.948;2023-07-24T03:16:06;101202.98;;;23.24;56.09
24013;BME280;12220;50.194;18.948;2023-07-24T03:18:07;101196.52;;;23.23;56.24
24013;BME280;12220;50.194;18.948;2023-07-24T03:20:13;101202.80;;;23.25;56.35
24013;BME280;12220;50.194;18.948;2023-07-24T03:22:19;101202.98;;;23.24;56.39
24013;BME280;12220;50.194;18.948;2023-07-24T03:24:20;101200.38;;;23.22;56.63
24013;BME280;12220;50.194;18.948;2023-07-24T03:26:22;101201.27;;;23.23;56.81
24013;BME280;12220;50.194;18.948;2023-07-24T03:28:23;101202.12;;;23.23;57.04
24013;BME280;12220;50.194;18.948;2023-07-24T03:30:34;101205.09;;;23.22;57.30
24013;BME280;12220;50.194;18.948;2023-07-24T03:32:36;101208.08;;;23.20;57.26
24013;BME280;12220;50.194;18.948;2023-07-24T03:34:38;101206.32;;;23.19;57.72
24013;BME280;12220;50.194;18.948;2023-07-24T03:36:40;101205.64;;;23.17;57.69
24013;BME280;12220;50.194;18.948;2023-07-24T03:38:49;101196.37;;;23.17;57.60
24013;BME280;12220;50.194;18.948;2023-07-24T03:40:50;101194.84;;;23.14;57.81
24013;BME280;12220;50.194;18.948;2023-07-24T03:42:51;101193.77;;;23.15;57.90
24013;BME280;12220;50.194;18.948;2023-07-24T03:44:53;101201.10;;;23.16;58.14
24013;BME280;12220;50.194;18.948;2023-07-24T03:47:03;101200.05;;;23.17;58.29
24013;BME280;12220;50.194;18.948;2023-07-24T03:49:05;101200.05;;;23.17;58.36
24013;BME280;12220;50.194;18.948;2023-07-24T03:51:06;101207.37;;;23.18;59.16
24013;BME280;12220;50.194;18.948;2023-07-24T03:53:09;101202.66;;;23.19;59.02
24013;BME280;12220;50.194;18.948;2023-07-24T03:55:18;101204.57;;;23.18;59.41
24013;BME280;12220;50.194;18.948;2023-07-24T03:57:20;101196.37;;;23.17;59.75
24013;BME280;12220;50.194;18.948;2023-07-24T03:59:21;101203.71;;;23.18;59.76
24013;BME280;12220;50.194;18.948;2023-07-24T04:01:22;101211.05;;;23.19;59.89
24013;BME280;12220;50.194;18.948;2023-07-24T04:03:33;101211.05;;;23.19;60.27
24013;BME280;12220;50.194;18.948;2023-07-24T04:05:35;101206.32;;;23.19;60.49
24013;BME280;12220;50.194;18.948;2023-07-24T04:07:36;101211.73;;;23.21;60.44
24013;BME280;12220;50.194;18.948;2023-07-24T04:09:38;101211.55;;;23.22;60.84
24013;BME280;12220;50.194;18.948;2023-07-24T04:11:48;101216.09;;;23.23;60.87
24013;BME280;12220;50.194;18.948;2023-07-24T04:13:49;101215.41;;;23.21;61.35
24013;BME280;12220;50.194;18.948;2023-07-24T04:15:50;101217.13;;;23.22;61.14
24013;BME280;12220;50.194;18.948;2023-07-24T04:17:52;101214.16;;;23.24;61.24
24013;BME280;12220;50.194;18.948;2023-07-24T04:20:03;101222.53;;;23.24;61.22
24013;BME280;12220;50.194;18.948;2023-07-24T04:22:05;101221.50;;;23.25;61.33
24013;BME280;12220;50.194;18.948;2023-07-24T04:24:06;101219.56;;;23.25;61.30
24013;BME280;12220;50.194;18.948;2023-07-24T04:26:08;101215.55;;;23.28;61.30
24013;BME280;12220;50.194;18.948;2023-07-24T04:28:17;101210.66;;;23.30;61.34
24013;BME280;12220;50.194;18.948;2023-07-24T04:30:19;101219.73;;;23.32;61.43
24013;BME280;12220;50.194;18.948;2023-07-24T04:32:20;101211.84;;;23.36;61.49
24013;BME280;12220;50.194;18.948;2023-07-24T04:34:22;101212.37;;;23.39;61.63
24013;BME280;12220;50.194;18.948;2023-07-24T04:36:32;101220.38;;;23.42;61.73
24013;BME280;12220;50.194;18.948;2023-07-24T04:38:34;101213.76;;;23.43;62.13
24013;BME280;12220;50.194;18.948;2023-07-24T04:40:35;101216.37;;;23.45;62.37
24013;BME280;12220;50.194;18.948;2023-07-24T04:42:36;101217.76;;;23.49;62.25
24013;BME280;12220;50.194;18.948;2023-07-24T04:44:47;101205.12;;;23.53;62.36
24013;BME280;12220;50.194;18.948;2023-07-24T04:46:50;101210.20;;;23.58;62.16
24013;BME280;12220;50.194;18.948;2023-07-24T04:48:53;101220.65;;;23.64;62.09
24013;BME280;12220;50.194;18.948;2023-07-24T04:50:55;101211.70;;;23.68;62.04
24013;BME280;12220;50.194;18.948;2023-07-24T04:53:02;101203.99;;;23.71;61.95
24013;BME280;12220;50.194;18.948;2023-07-24T04:55:04;101215.88;;;23.73;62.36
24013;BME280;12220;50.194;18.948;2023-07-24T04:57:05;101216.38;;;23.76;62.24
24013;BME280;12220;50.194;18.948;2023-07-24T04:59:09;101222.67;;;23.78;62.17
24013;BME280;12220;50.194;18.948;2023-07-24T05:01:17;101213.05;;;23.81;62.17
24013;BME280;12220;50.194;18.948;2023-07-24T05:03:18;101209.18;;;23.82;62.00
24013;BME280;12220;50.194;18.948;2023-07-24T05:05:20;101206.02;;;23.85;62.13
24013;BME280;12220;50.194;18.948;2023-07-24T05:07:22;101210.41;;;23.88;62.02
24013;BME280;12220;50.194;18.948;2023-07-24T05:09:31;101208.66;;;23.87;62.33
24013;BME280;12220;50.194;18.948;2023-07-24T05:11:33;101208.32;;;23.90;62.17
24013;BME280;12220;50.194;18.948;2023-07-24T05:13:34;101208.80;;;23.93;61.84
24013;BME280;12220;50.194;18.948;2023-07-24T05:15:36;101210.37;;;23.96;61.87
24013;BME280;12220;50.194;18.948;2023-07-24T05:17:46;101215.96;;;23.96;61.91
24013;BME280;12220;50.194;18.948;2023-07-24T05:19:48;101214.02;;;23.96;61.80
24013;BME280;12220;50.194;18.948;2023-07-24T05:21:49;101219.44;;;23.98;61.98
24013;BME280;12220;50.194;18.948;2023-07-24T05:23:50;101223.98;;;23.99;61.97
24013;BME280;12220;50.194;18.948;2023-07-24T05:26:02;101223.12;;;23.98;62.11
24013;BME280;12220;50.194;18.948;2023-07-24T05:28:04;101222.23;;;23.98;62.08
24013;BME280;12220;50.194;18.948;2023-07-24T05:30:06;101220.48;;;23.97;62.45
24013;BME280;12220;50.194;18.948;2023-07-24T05:32:08;101226.59;;;24.00;62.65
24013;BME280;12220;50.194;18.948;2023-07-24T05:34:16;101221.00;;;24.00;62.52
24013;BME280;12220;50.194;18.948;2023-07-24T05:36:17;101220.63;;;24.04;62.23
24013;BME280;12220;50.194;18.948;2023-07-24T05:38:19;101220.25;;;24.07;62.32
24013;BME280;12220;50.194;18.948;2023-07-24T05:40:20;101212.38;;;24.10;62.24
24013;BME280;12220;50.194;18.948;2023-07-24T05:42:31;101208.30;;;24.13;62.32
24013;BME280;12220;50.194;18.948;2023-07-24T05:44:32;101208.82;;;24.16;62.18
24013;BME280;12220;50.194;18.948;2023-07-24T05:46:36;101213.86;;;24.21;62.20
24013;BME280;12220;50.194;18.948;2023-07-24T05:48:37;101221.02;;;24.24;62.31
24013;BME280;12220;50.194;18.948;2023-07-24T05:50:46;101032.82;;;23.14;62.60
24013;BME280;12220;50.194;18.948;2023-07-24T05:52:48;101227.09;;;24.27;62.27
24013;BME280;12220;50.194;18.948;2023-07-24T05:54:49;101229.70;;;24.29;62.57
24013;BME280;12220;50.194;18.948;2023-07-24T05:56:52;101237.57;;;24.33;62.30
24013;BME280;12220;50.194;18.948;2023-07-24T05:59:00;101233.69;;;24.34;62.29
24013;BME280;12220;50.194;18.948;2023-07-24T06:01:02;101236.12;;;24.37;62.22
24013;BME280;12220;50.194;18.948;2023-07-24T06:03:04;101240.09;;;24.43;62.28
24013;BME280;12220;50.194;18.948;2023-07-24T06:05:06;101233.93;;;24.48;62.13
24013;BME280;12220;50.194;18.948;2023-07-24T06:07:15;101230.79;;;24.51;62.39
24013;BME280;12220;50.194;18.948;2023-07-24T06:09:16;101234.07;;;24.54;62.14
24013;BME280;12220;50.194;18.948;2023-07-24T06:11:18;101235.62;;;24.57;62.39
24013;BME280;12220;50.194;18.948;2023-07-24T06:13:19;101230.34;;;24.62;61.96
24013;BME280;12220;50.194;18.948;2023-07-24T06:15:30;101233.66;;;24.66;61.75
24013;BME280;12220;50.194;18.948;2023-07-24T06:17:32;101236.93;;;24.69;61.70
24013;BME280;12220;50.194;18.948;2023-07-24T06:19:34;101233.75;;;24.73;61.49
24013;BME280;12220;50.194;18.948;2023-07-24T06:21:35;101233.21;;;24.77;61.56
24013;BME280;12220;50.194;18.948;2023-07-24T06:23:45;101226.33;;;24.80;61.30
24013;BME280;12220;50.194;18.948;2023-07-24T06:25:46;101219.49;;;24.82;61.02
24013;BME280;12220;50.194;18.948;2023-07-24T06:27:48;101221.05;;;24.85;60.89
24013;BME280;12220;50.194;18.948;2023-07-24T06:29:49;101225.02;;;24.91;60.63
24013;BME280;12220;50.194;18.948;2023-07-24T06:32:00;101217.09;;;24.94;60.45
24013;BME280;12220;50.194;18.948;2023-07-24T06:34:01;101216.70;;;24.97;60.20
24013;BME280;12220;50.194;18.948;2023-07-24T06:36:03;101209.00;;;24.99;59.81
24013;BME280;12220;50.194;18.948;2023-07-24T06:38:04;101249.20;;;25.06;59.71
24013;BME280;12220;50.194;18.948;2023-07-24T06:40:15;101210.24;;;25.12;59.50
24013;BME280;12220;50.194;18.948;2023-07-24T06:42:16;101206.20;;;25.14;59.58
24013;BME280;12220;50.194;18.948;2023-07-24T06:44:17;101209.97;;;25.21;59.35
24013;BME280;12220;50.194;18.948;2023-07-24T06:46:19;101211.53;;;25.24;59.23
24013;BME280;12220;50.194;18.948;2023-07-24T06:48:29;101205.14;;;25.30;59.08
24013;BME280;12220;50.194;18.948;2023-07-24T06:50:33;101207.58;;;25.33;58.75
24013;BME280;12220;50.194;18.948;2023-07-24T06:52:35;101219.10;;;25.38;58.38
24013;BME280;12220;50.194;18.948;2023-07-24T06:54:36;101200.13;;;25.40;57.89
24013;BME280;12220;50.194;18.948;2023-07-24T06:56:44;101201.49;;;25.45;57.88
24013;BME280;12220;50.194;18.948;2023-07-24T06:58:45;101203.51;;;25.51;57.75
24013;BME280;12220;50.194;18.948;2023-07-24T07:00:47;101187.65;;;25.58;57.96
24013;BME280;12220;50.194;18.948;2023-07-24T07:02:48;101197.21;;;25.64;57.97
24013;BME280;12220;50.194;18.948;2023-07-24T07:04:59;101195.16;;;25.72;57.91
24013;BME280;12220;50.194;18.948;2023-07-24T07:07:00;101189.44;;;25.81;57.82
24013;BME280;12220;50.194;18.948;2023-07-24T07:09:02;101183.89;;;25.87;57.60
24013;BME280;12220;50.194;18.948;2023-07-24T07:11:05;101192.20;;;25.96;57.31
24013;BME280;12220;50.194;18.948;2023-07-24T07:13:14;101185.82;;;26.02;56.44
24013;BME280;12220;50.194;18.948;2023-07-24T07:15:15;101185.50;;;26.12;56.53
24013;BME280;12220;50.194;18.948;2023-07-24T07:17:17;101193.80;;;26.20;56.32
24013;BME280;12220;50.194;18.948;2023-07-24T07:19:18;101184.55;;;26.26;55.69
24013;BME280;12220;50.194;18.948;2023-07-24T07:21:28;101175.98;;;26.34;55.47
24013;BME280;12220;50.194;18.948;2023-07-24T07:23:30;101175.85;;;26.42;55.31
24013;BME280;12220;50.194;18.948;2023-07-24T07:25:31;101177.65;;;26.50;54.55
24013;BME280;12220;50.194;18.948;2023-07-24T07:27:32;101173.43;;;26.61;54.23
24013;BME280;12220;50.194;18.948;2023-07-24T07:29:43;101181.04;;;26.67;53.72
24013;BME280;12220;50.194;18.948;2023-07-24T07:31:45;101174.41;;;26.75;53.32
24013;BME280;12220;50.194;18.948;2023-07-24T07:33:49;101177.09;;;26.83;53.31
24013;BME280;12220;50.194;18.948;2023-07-24T07:35:50;100849.07;;;24.95;51.91
24013;BME280;12220;50.194;18.948;2023-07-24T07:37:58;101177.60;;;26.93;52.30
24013;BME280;12220;50.194;18.948;2023-07-24T07:40:00;101168.12;;;27.01;51.88
24013;BME280;12220;50.194;18.948;2023-07-24T07:42:02;101163.21;;;27.10;51.85
24013;BME280;12220;50.194;18.948;2023-07-24T07:44:03;100988.63;;;26.15;52.08
24013;BME280;12220;50.194;18.948;2023-07-24T07:46:13;101164.86;;;27.33;51.70
24013;BME280;12220;50.194;18.948;2023-07-24T07:48:14;101158.89;;;27.42;51.58
24013;BME280;12220;50.194;18.948;2023-07-24T07:50:16;101163.24;;;27.52;50.54
24013;BME280;12220;50.194;18.948;2023-07-24T07:52:17;101154.17;;;27.56;49.44
24013;BME280;12220;50.194;18.948;2023-07-24T07:54:27;101152.47;;;27.62;49.45
24013;BME280;12220;50.194;18.948;2023-07-24T07:56:29;101145.99;;;27.61;48.82
24013;BME280;12220;50.194;18.948;2023-07-24T07:58:30;101139.25;;;27.62;48.45
24013;BME280;12220;50.194;18.948;2023-07-24T08:00:32;101139.93;;;27.64;48.17
24013;BME280;12220;50.194;18.948;2023-07-24T08:02:42;100958.92;;;26.62;48.28
24013;BME280;12220;50.194;18.948;2023-07-24T08:04:44;101139.50;;;27.68;47.62
24013;BME280;12220;50.194;18.948;2023-07-24T08:06:48;101142.10;;;27.69;47.28
24013;BME280;12220;50.194;18.948;2023-07-24T08:08:50;101146.02;;;27.75;46.43
24013;BME280;12220;50.194;18.948;2023-07-24T08:10:57;101142.80;;;27.85;46.49
24013;BME280;12220;50.194;18.948;2023-07-24T08:12:58;101149.11;;;27.93;46.21
24013;BME280;12220;50.194;18.948;2023-07-24T08:15:00;101154.12;;;28.05;46.37
24013;BME280;12220;50.194;18.948;2023-07-24T08:17:02;101151.33;;;28.11;45.19
24013;BME280;12220;50.194;18.948;2023-07-24T08:19:12;101155.02;;;28.18;45.54
24013;BME280;12220;50.194;18.948;2023-07-24T08:21:14;101150.02;;;28.21;45.41
24013;BME280;12220;50.194;18.948;2023-07-24T08:23:15;101148.10;;;28.21;44.51
24013;BME280;12220;50.194;18.948;2023-07-24T08:25:18;101151.77;;;28.22;44.49
24013;BME280;12220;50.194;18.948;2023-07-24T08:27:27;101142.46;;;28.28;44.71
24013;BME280;12220;50.194;18.948;2023-07-24T08:29:28;101144.84;;;28.31;44.53
24013;BME280;12220;50.194;18.948;2023-07-24T08:31:33;101135.54;;;28.30;43.87
24013;BME280;12220;50.194;18.948;2023-07-24T08:33:35;101122.76;;;28.34;43.81
24013;BME280;12220;50.194;18.948;2023-07-24T08:35:41;101116.04;;;28.29;42.06
24013;BME280;12220;50.194;18.948;2023-07-24T08:37:43;101134.01;;;28.28;41.74
24013;BME280;12220;50.194;18.948;2023-07-24T08:39:47;101141.82;;;28.26;41.14
24013;BME280;12220;50.194;18.948;2023-07-24T08:41:49;101137.49;;;28.30;41.14
24013;BME280;12220;50.194;18.948;2023-07-24T08:43:59;101136.63;;;28.36;41.63
24013;BME280;12220;50.194;18.948;2023-07-24T08:46:04;101123.84;;;28.33;40.37
24013;BME280;12220;50.194;18.948;2023-07-24T08:48:06;101102.41;;;28.32;40.42
24013;BME280;12220;50.194;18.948;2023-07-24T08:50:08;101109.53;;;28.35;40.72
24013;BME280;12220;50.194;18.948;2023-07-24T08:52:13;101114.09;;;28.36;41.15
24013;BME280;12220;50.194;18.948;2023-07-24T08:54:15;101128.17;;;28.36;41.53
24013;BME280;12220;50.194;18.948;2023-07-24T08:56:17;101135.55;;;28.37;41.52
24013;BME280;12220;50.194;18.948;2023-07-24T08:58:18;101125.59;;;28.41;41.10
24013;BME280;12220;50.194;18.948;2023-07-24T09:00:27;101118.41;;;28.45;41.06
24013;BME280;12220;50.194;18.948;2023-07-24T09:02:29;101103.89;;;28.55;41.22
24013;BME280;12220;50.194;18.948;2023-07-24T09:04:30;101113.88;;;28.64;41.52
24013;BME280;12220;50.194;18.948;2023-07-24T09:06:32;101119.52;;;28.71;40.85
24013;BME280;12220;50.194;18.948;2023-07-24T09:08:42;101109.55;;;28.68;40.32
24013;BME280;12220;50.194;18.948;2023-07-24T09:10:43;101110.87;;;28.66;39.95
24013;BME280;12220;50.194;18.948;2023-07-24T09:12:45;101107.17;;;28.65;40.16
24013;BME280;12220;50.194;18.948;2023-07-24T09:14:46;101100.88;;;28.70;40.45
24013;BME280;12220;50.194;18.948;2023-07-24T09:17:05;101097.62;;;28.73;40.28
24013;BME280;12220;50.194;18.948;2023-07-24T09:19:17;101090.02;;;28.80;40.63
24013;BME280;12220;50.194;18.948;2023-07-24T09:21:31;101089.77;;;28.89;41.00
24013;BME280;12220;50.194;18.948;2023-07-24T09:23:33;101095.82;;;28.99;40.44
24013;BME280;12220;50.194;18.948;2023-07-24T09:25:36;101097.11;;;29.10;40.63
24013;BME280;12220;50.194;18.948;2023-07-24T09:27:37;101089.05;;;29.13;40.10
24013;BME280;12220;50.194;18.948;2023-07-24T09:29:39;101091.64;;;29.21;40.26
24013;BME280;12220;50.194;18.948;2023-07-24T09:31:40;101096.18;;;29.29;40.33
24013;BME280;12220;50.194;18.948;2023-07-24T09:33:41;101078.34;;;29.42;40.28
24013;BME280;12220;50.194;18.948;2023-07-24T09:35:59;101087.63;;;29.49;39.25
24013;BME280;12220;50.194;18.948;2023-07-24T09:38:07;101073.93;;;29.53;39.57
24013;BME280;12220;50.194;18.948;2023-07-24T09:40:10;101074.07;;;29.65;39.98
24013;BME280;12220;50.194;18.948;2023-07-24T09:42:11;101072.27;;;29.77;40.34
24013;BME280;12220;50.194;18.948;2023-07-24T09:44:14;101077.69;;;29.85;39.22
24013;BME280;12220;50.194;18.948;2023-07-24T09:46:15;101064.43;;;29.86;39.15
24013;BME280;12220;50.194;18.948;2023-07-24T09:48:18;101057.01;;;29.92;38.87
24013;BME280;12220;50.194;18.948;2023-07-24T09:50:20;101059.41;;;29.88;37.91
24013;BME280;12220;50.194;18.948;2023-07-24T09:52:29;101046.64;;;29.85;37.92
24013;BME280;12220;50.194;18.948;2023-07-24T09:54:37;101055.54;;;29.82;38.23
24013;BME280;12220;50.194;18.948;2023-07-24T09:56:47;101054.25;;;29.78;38.12
24013;BME280;12220;50.194;18.948;2023-07-24T09:58:51;101057.28;;;29.83;38.26
24013;BME280;12220;50.194;18.948;2023-07-24T10:00:57;101062.88;;;29.90;38.56
24013;BME280;12220;50.194;18.948;2023-07-24T10:02:59;101062.81;;;29.97;38.76
24013;BME280;12220;50.194;18.948;2023-07-24T10:05:02;101063.16;;;30.07;38.75
24013;BME280;12220;50.194;18.948;2023-07-24T10:07:05;101057.24;;;30.15;38.71
24013;BME280;12220;50.194;18.948;2023-07-24T10:09:09;101055.27;;;30.16;37.74
24013;BME280;12220;50.194;18.948;2023-07-24T10:11:13;101050.97;;;30.13;37.29
24013;BME280;12220;50.194;18.948;2023-07-24T10:13:15;101047.34;;;30.06;36.69
24013;BME280;12220;50.194;18.948;2023-07-24T10:15:17;101044.98;;;30.03;36.99
24013;BME280;12220;50.194;18.948;2023-07-24T10:19:45;101037.75;;;30.07;38.03
24013;BME280;12220;50.194;18.948;2023-07-24T10:21:47;101034.03;;;30.13;37.69
24013;BME280;12220;50.194;18.948;2023-07-24T10:23:49;101031.35;;;30.18;37.83
24013;BME280;12220;50.194;18.948;2023-07-24T10:25:50;101041.95;;;30.23;37.80
24013;BME280;12220;50.194;18.948;2023-07-24T10:28:09;101051.47;;;30.29;37.77
24013;BME280;12220;50.194;18.948;2023-07-24T10:30:28;101037.45;;;30.40;37.79
24013;BME280;12220;50.194;18.948;2023-07-24T10:32:30;101051.13;;;30.43;37.29
24013;BME280;12220;50.194;18.948;2023-07-24T10:34:37;101055.47;;;30.46;37.25
24013;BME280;12220;50.194;18.948;2023-07-24T10:36:39;101057.91;;;30.42;37.14
24013;BME280;12220;50.194;18.948;2023-07-24T10:38:42;101057.69;;;30.37;36.90
24013;BME280;12220;50.194;18.948;2023-07-24T10:40:47;101061.06;;;30.28;37.07
24013;BME280;12220;50.194;18.948;2023-07-24T10:45:08;101052.76;;;30.07;37.38
24013;BME280;12220;50.194;18.948;2023-07-24T10:47:11;101045.02;;;29.96;37.19